sensor_id;sensor_type;location;lat;lon;timestamp;P1;durP1;ratioP1;P2;durP2;ratioP2
51995;SDS011;38010;53.264;6.592;2023-12-04T00:01:21;4.28;;;2.85;;
51995;SDS011;38010;53.264;6.592;2023-12-04T00:03:47;3.97;;;2.88;;
51995;SDS011;38010;53.264;6.592;2023-12-04T00:06:13;4.53;;;3.63;;
51995;SDS011;38010;53.264;6.592;2023-12-04T00:08:39;4.47;;;3.15;;
51995;SDS011;38010;53.264;6.592;2023-12-04T00:11:06;4.82;;;3.40;;
51995;SDS011;38010;53.264;6.592;2023-12-04T00:13:32;4.75;;;3.20;;
51995;SDS011;38010;53.264;6.592;2023-12-04T00:15:58;5.30;;;3.47;;
51995;SDS011;38010;53.264;6.592;2023-12-04T00:18:24;4.90;;;3.58;;
51995;SDS011;38010;53.264;6.592;2023-12-04T00:20:51;5.13;;;3.60;;
51995;SDS011;38010;53.264;6.592;2023-12-04T00:23:17;4.05;;;3.13;;
51995;SDS011;38010;53.264;6.592;2023-12-04T00:25:43;5.03;;;3.13;;
51995;SDS011;38010;53.264;6.592;2023-12-04T00:28:09;4.75;;;3.05;;
51995;SDS011;38010;53.264;6.592;2023-12-04T00:30:35;3.72;;;2.83;;
51995;SDS011;38010;53.264;6.592;2023-12-04T00:33:01;4.80;;;3.20;;
51995;SDS011;38010;53.264;6.592;2023-12-04T00:35:27;5.60;;;3.17;;
51995;SDS011;38010;53.264;6.592;2023-12-04T00:37:53;4.18;;;3.78;;
51995;SDS011;38010;53.264;6.592;2023-12-04T00:40:19;4.75;;;3.35;;
51995;SDS011;38010;53.264;6.592;2023-12-04T00:42:46;5.30;;;3.70;;
51995;SDS011;38010;53.264;6.592;2023-12-04T00:45:12;4.32;;;3.10;;
51995;SDS011;38010;53.264;6.592;2023-12-04T00:47:38;4.45;;;3.25;;
51995;SDS011;38010;53.264;6.592;2023-12-04T00:50:04;5.15;;;3.95;;
51995;SDS011;38010;53.264;6.592;2023-12-04T00:52:30;4.25;;;3.00;;
51995;SDS011;38010;53.264;6.592;2023-12-04T00:54:56;5.32;;;3.67;;
51995;SDS011;38010;53.264;6.592;2023-12-04T00:57:22;4.05;;;3.08;;
51995;SDS011;38010;53.264;6.592;2023-12-04T00:59:48;3.95;;;3.10;;
51995;SDS011;38010;53.264;6.592;2023-12-04T01:02:15;5.07;;;3.47;;
51995;SDS011;38010;53.264;6.592;2023-12-04T01:04:41;4.20;;;3.30;;
51995;SDS011;38010;53.264;6.592;2023-12-04T01:07:07;4.28;;;3.05;;
51995;SDS011;38010;53.264;6.592;2023-12-04T01:09:36;5.78;;;3.20;;
51995;SDS011;38010;53.264;6.592;2023-12-04T01:12:02;4.88;;;3.50;;
51995;SDS011;38010;53.264;6.592;2023-12-04T01:14:29;4.70;;;3.42;;
51995;SDS011;38010;53.264;6.592;2023-12-04T01:16:55;4.20;;;2.72;;
51995;SDS011;38010;53.264;6.592;2023-12-04T01:19:21;4.63;;;3.53;;
51995;SDS011;38010;53.264;6.592;2023-12-04T01:21:47;4.78;;;3.30;;
51995;SDS011;38010;53.264;6.592;2023-12-04T01:24:14;4.30;;;3.10;;
51995;SDS011;38010;53.264;6.592;2023-12-04T01:26:41;4.00;;;2.90;;
51995;SDS011;38010;53.264;6.592;2023-12-04T01:29:07;5.20;;;3.85;;
51995;SDS011;38010;53.264;6.592;2023-12-04T01:31:33;4.40;;;3.33;;
51995;SDS011;38010;53.264;6.592;2023-12-04T01:34:00;4.13;;;3.28;;
51995;SDS011;38010;53.264;6.592;2023-12-04T01:36:26;4.85;;;3.13;;
51995;SDS011;38010;53.264;6.592;2023-12-04T01:38:52;4.30;;;3.15;;
51995;SDS011;38010;53.264;6.592;2023-12-04T01:41:18;4.78;;;3.15;;
51995;SDS011;38010;53.264;6.592;2023-12-04T01:43:45;4.40;;;3.22;;
51995;SDS011;38010;53.264;6.592;2023-12-04T01:46:11;3.90;;;3.20;;
51995;SDS011;38010;53.264;6.592;2023-12-04T01:48:39;4.07;;;3.22;;
51995;SDS011;38010;53.264;6.592;2023-12-04T01:51:06;4.63;;;3.22;;
51995;SDS011;38010;53.264;6.592;2023-12-04T01:53:33;3.72;;;2.80;;
51995;SDS011;38010;53.264;6.592;2023-12-04T01:56:00;4.85;;;3.33;;
51995;SDS011;38010;53.264;6.592;2023-12-04T01:58:26;4.38;;;3.42;;
51995;SDS011;38010;53.264;6.592;2023-12-04T02:00:52;4.15;;;3.42;;
51995;SDS011;38010;53.264;6.592;2023-12-04T02:03:18;3.63;;;2.85;;
51995;SDS011;38010;53.264;6.592;2023-12-04T02:05:44;4.10;;;3.17;;
51995;SDS011;38010;53.264;6.592;2023-12-04T02:08:11;4.30;;;2.80;;
51995;SDS011;38010;53.264;6.592;2023-12-04T02:10:37;3.35;;;2.80;;
51995;SDS011;38010;53.264;6.592;2023-12-04T02:13:04;4.20;;;3.20;;
51995;SDS011;38010;53.264;6.592;2023-12-04T02:15:30;3.90;;;3.20;;
51995;SDS011;38010;53.264;6.592;2023-12-04T02:17:56;3.95;;;3.13;;
51995;SDS011;38010;53.264;6.592;2023-12-04T02:20:30;5.47;;;3.33;;
51995;SDS011;38010;53.264;6.592;2023-12-04T02:22:57;4.03;;;3.38;;
51995;SDS011;38010;53.264;6.592;2023-12-04T02:25:23;3.45;;;2.88;;
51995;SDS011;38010;53.264;6.592;2023-12-04T02:27:50;3.70;;;2.80;;
51995;SDS011;38010;53.264;6.592;2023-12-04T02:30:17;4.93;;;3.35;;
51995;SDS011;38010;53.264;6.592;2023-12-04T02:32:47;4.65;;;2.97;;
51995;SDS011;38010;53.264;6.592;2023-12-04T02:35:14;5.10;;;3.42;;
51995;SDS011;38010;53.264;6.592;2023-12-04T02:37:40;4.03;;;2.88;;
51995;SDS011;38010;53.264;6.592;2023-12-04T02:40:07;4.03;;;2.90;;
51995;SDS011;38010;53.264;6.592;2023-12-04T02:42:33;4.30;;;2.95;;
51995;SDS011;38010;53.264;6.592;2023-12-04T02:44:59;4.05;;;3.05;;
51995;SDS011;38010;53.264;6.592;2023-12-04T02:47:25;4.53;;;3.10;;
51995;SDS011;38010;53.264;6.592;2023-12-04T02:49:51;4.22;;;2.97;;
51995;SDS011;38010;53.264;6.592;2023-12-04T02:52:18;4.18;;;3.03;;
51995;SDS011;38010;53.264;6.592;2023-12-04T02:54:44;3.78;;;2.72;;
51995;SDS011;38010;53.264;6.592;2023-12-04T02:57:10;3.47;;;2.75;;
51995;SDS011;38010;53.264;6.592;2023-12-04T02:59:36;3.97;;;2.70;;
51995;SDS011;38010;53.264;6.592;2023-12-04T03:02:02;3.70;;;2.80;;
51995;SDS011;38010;53.264;6.592;2023-12-04T03:04:30;3.65;;;2.55;;
51995;SDS011;38010;53.264;6.592;2023-12-04T03:06:56;3.47;;;2.72;;
51995;SDS011;38010;53.264;6.592;2023-12-04T03:09:22;4.60;;;3.25;;
51995;SDS011;38010;53.264;6.592;2023-12-04T03:11:48;4.85;;;3.13;;
51995;SDS011;38010;53.264;6.592;2023-12-04T03:14:14;3.85;;;2.80;;
51995;SDS011;38010;53.264;6.592;2023-12-04T03:16:40;3.53;;;2.63;;
51995;SDS011;38010;53.264;6.592;2023-12-04T03:19:06;3.63;;;2.50;;
51995;SDS011;38010;53.264;6.592;2023-12-04T03:21:32;4.07;;;3.00;;
51995;SDS011;38010;53.264;6.592;2023-12-04T03:23:58;3.83;;;2.60;;
51995;SDS011;38010;53.264;6.592;2023-12-04T03:26:25;2.88;;;2.22;;
51995;SDS011;38010;53.264;6.592;2023-12-04T03:28:51;3.90;;;2.90;;
51995;SDS011;38010;53.264;6.592;2023-12-04T03:31:17;4.00;;;2.92;;
51995;SDS011;38010;53.264;6.592;2023-12-04T03:33:43;3.78;;;2.70;;
51995;SDS011;38010;53.264;6.592;2023-12-04T03:36:09;2.60;;;2.17;;
51995;SDS011;38010;53.264;6.592;2023-12-04T03:38:35;2.97;;;2.10;;
51995;SDS011;38010;53.264;6.592;2023-12-04T03:41:01;3.35;;;2.53;;
51995;SDS011;38010;53.264;6.592;2023-12-04T03:43:28;3.55;;;2.70;;
51995;SDS011;38010;53.264;6.592;2023-12-04T03:45:54;3.80;;;2.55;;
51995;SDS011;38010;53.264;6.592;2023-12-04T03:48:20;4.22;;;2.90;;
51995;SDS011;38010;53.264;6.592;2023-12-04T03:50:46;3.47;;;2.63;;
51995;SDS011;38010;53.264;6.592;2023-12-04T03:53:12;3.55;;;2.65;;
51995;SDS011;38010;53.264;6.592;2023-12-04T03:55:38;3.58;;;2.80;;
51995;SDS011;38010;53.264;6.592;2023-12-04T03:58:04;5.22;;;3.38;;
51995;SDS011;38010;53.264;6.592;2023-12-04T04:00:30;3.53;;;2.47;;
51995;SDS011;38010;53.264;6.592;2023-12-04T04:02:56;3.75;;;3.10;;
51995;SDS011;38010;53.264;6.592;2023-12-04T04:05:22;3.40;;;2.50;;
51995;SDS011;38010;53.264;6.592;2023-12-04T04:07:49;3.80;;;2.60;;
51995;SDS011;38010;53.264;6.592;2023-12-04T04:10:15;2.83;;;2.33;;
51995;SDS011;38010;53.264;6.592;2023-12-04T04:12:41;3.35;;;2.40;;
51995;SDS011;38010;53.264;6.592;2023-12-04T04:15:07;3.55;;;2.58;;
51995;SDS011;38010;53.264;6.592;2023-12-04T04:17:34;3.33;;;2.60;;
51995;SDS011;38010;53.264;6.592;2023-12-04T04:20:00;3.55;;;2.50;;
51995;SDS011;38010;53.264;6.592;2023-12-04T04:22:26;2.72;;;2.28;;
51995;SDS011;38010;53.264;6.592;2023-12-04T04:24:52;3.20;;;2.60;;
51995;SDS011;38010;53.264;6.592;2023-12-04T04:27:18;3.70;;;2.70;;
51995;SDS011;38010;53.264;6.592;2023-12-04T04:29:44;2.55;;;2.13;;
51995;SDS011;38010;53.264;6.592;2023-12-04T04:32:10;3.80;;;2.75;;
51995;SDS011;38010;53.264;6.592;2023-12-04T04:34:36;3.95;;;2.58;;
51995;SDS011;38010;53.264;6.592;2023-12-04T04:37:03;2.90;;;2.45;;
51995;SDS011;38010;53.264;6.592;2023-12-04T04:39:29;3.17;;;2.55;;
51995;SDS011;38010;53.264;6.592;2023-12-04T04:41:55;4.78;;;2.80;;
51995;SDS011;38010;53.264;6.592;2023-12-04T04:44:21;3.85;;;2.85;;
51995;SDS011;38010;53.264;6.592;2023-12-04T04:46:47;3.42;;;2.70;;
51995;SDS011;38010;53.264;6.592;2023-12-04T04:49:13;3.10;;;2.50;;
51995;SDS011;38010;53.264;6.592;2023-12-04T04:51:39;3.03;;;2.40;;
51995;SDS011;38010;53.264;6.592;2023-12-04T04:54:05;2.72;;;2.08;;
51995;SDS011;38010;53.264;6.592;2023-12-04T04:56:31;2.88;;;2.42;;
51995;SDS011;38010;53.264;6.592;2023-12-04T04:58:58;4.05;;;2.70;;
51995;SDS011;38010;53.264;6.592;2023-12-04T05:01:24;4.38;;;2.90;;
51995;SDS011;38010;53.264;6.592;2023-12-04T05:03:50;3.22;;;2.25;;
51995;SDS011;38010;53.264;6.592;2023-12-04T05:06:16;3.13;;;2.30;;
51995;SDS011;38010;53.264;6.592;2023-12-04T05:08:42;3.85;;;2.65;;
51995;SDS011;38010;53.264;6.592;2023-12-04T05:11:08;3.13;;;2.35;;
51995;SDS011;38010;53.264;6.592;2023-12-04T05:13:34;3.92;;;2.20;;
51995;SDS011;38010;53.264;6.592;2023-12-04T05:16:00;3.40;;;2.50;;
51995;SDS011;38010;53.264;6.592;2023-12-04T05:18:26;3.33;;;2.63;;
51995;SDS011;38010;53.264;6.592;2023-12-04T05:20:52;3.58;;;2.58;;
51995;SDS011;38010;53.264;6.592;2023-12-04T05:23:18;3.75;;;2.33;;
51995;SDS011;38010;53.264;6.592;2023-12-04T05:25:44;3.90;;;2.42;;
51995;SDS011;38010;53.264;6.592;2023-12-04T05:28:10;3.60;;;2.72;;
51995;SDS011;38010;53.264;6.592;2023-12-04T05:30:37;4.55;;;2.80;;
51995;SDS011;38010;53.264;6.592;2023-12-04T05:33:03;3.85;;;2.58;;
51995;SDS011;38010;53.264;6.592;2023-12-04T05:35:29;4.00;;;2.63;;
51995;SDS011;38010;53.264;6.592;2023-12-04T05:37:58;3.95;;;2.60;;
51995;SDS011;38010;53.264;6.592;2023-12-04T05:40:25;3.17;;;2.40;;
51995;SDS011;38010;53.264;6.592;2023-12-04T05:42:51;3.03;;;2.30;;
51995;SDS011;38010;53.264;6.592;2023-12-04T05:45:17;3.22;;;2.53;;
51995;SDS011;38010;53.264;6.592;2023-12-04T05:47:43;3.78;;;2.70;;
51995;SDS011;38010;53.264;6.592;2023-12-04T05:50:09;4.03;;;2.83;;
51995;SDS011;38010;53.264;6.592;2023-12-04T05:52:35;3.35;;;2.70;;
51995;SDS011;38010;53.264;6.592;2023-12-04T05:55:01;3.53;;;2.35;;
51995;SDS011;38010;53.264;6.592;2023-12-04T05:57:27;3.88;;;2.45;;
51995;SDS011;38010;53.264;6.592;2023-12-04T05:59:53;3.58;;;2.50;;
51995;SDS011;38010;53.264;6.592;2023-12-04T06:02:20;3.63;;;2.63;;
51995;SDS011;38010;53.264;6.592;2023-12-04T06:04:46;2.80;;;2.22;;
51995;SDS011;38010;53.264;6.592;2023-12-04T06:07:12;4.05;;;2.80;;
51995;SDS011;38010;53.264;6.592;2023-12-04T06:09:38;3.17;;;2.33;;
51995;SDS011;38010;53.264;6.592;2023-12-04T06:12:04;4.68;;;3.00;;
51995;SDS011;38010;53.264;6.592;2023-12-04T06:14:33;2.75;;;1.98;;
51995;SDS011;38010;53.264;6.592;2023-12-04T06:17:00;4.13;;;2.50;;
51995;SDS011;38010;53.264;6.592;2023-12-04T06:19:27;3.22;;;2.28;;
51995;SDS011;38010;53.264;6.592;2023-12-04T06:21:54;4.03;;;2.47;;
51995;SDS011;38010;53.264;6.592;2023-12-04T06:24:20;2.47;;;2.08;;
51995;SDS011;38010;53.264;6.592;2023-12-04T06:26:47;3.30;;;2.35;;
51995;SDS011;38010;53.264;6.592;2023-12-04T06:29:16;9.30;;;2.88;;
51995;SDS011;38010;53.264;6.592;2023-12-04T06:31:42;16.42;;;2.95;;
51995;SDS011;38010;53.264;6.592;2023-12-04T06:34:08;10.40;;;2.85;;
51995;SDS011;38010;53.264;6.592;2023-12-04T06:36:35;4.38;;;2.60;;
51995;SDS011;38010;53.264;6.592;2023-12-04T06:39:03;7.05;;;3.58;;
51995;SDS011;38010;53.264;6.592;2023-12-04T06:41:30;6.72;;;2.85;;
51995;SDS011;38010;53.264;6.592;2023-12-04T06:43:56;8.55;;;2.40;;
51995;SDS011;38010;53.264;6.592;2023-12-04T06:46:22;3.60;;;2.03;;
51995;SDS011;38010;53.264;6.592;2023-12-04T06:48:49;3.58;;;2.17;;
51995;SDS011;38010;53.264;6.592;2023-12-04T06:51:19;3.00;;;1.95;;
51995;SDS011;38010;53.264;6.592;2023-12-04T06:53:45;3.17;;;1.70;;
51995;SDS011;38010;53.264;6.592;2023-12-04T06:56:11;3.85;;;1.80;;
51995;SDS011;38010;53.264;6.592;2023-12-04T06:58:38;3.28;;;1.85;;
51995;SDS011;38010;53.264;6.592;2023-12-04T07:01:04;3.08;;;1.83;;
51995;SDS011;38010;53.264;6.592;2023-12-04T07:03:30;2.75;;;1.80;;
51995;SDS011;38010;53.264;6.592;2023-12-04T07:05:56;3.53;;;2.20;;
51995;SDS011;38010;53.264;6.592;2023-12-04T07:08:22;2.90;;;1.88;;
51995;SDS011;38010;53.264;6.592;2023-12-04T07:10:48;3.70;;;1.63;;
